Argyle, Michigan
Current Conditions -  °F | °C
As of 10:55 PM on Friday 28 Nov 2014 (Local Time) from KBAX Reporting Station
Light Snow Light Snow  
Wind Chill: 16°   Ceiling: 2500
Heat Index: 24°   Visibility: 3mi
Dew Point: 22°   Wind: 7mph
Humidity: 94%   Direction: 170°S
Pressure: 30.1"   Gusts: NA
Location:  43.56°N, 82.94°W
Report Text: KBAX 290355Z AUTO 17006KT 3SM -SN SCT013 BKN025 OVC050 M04/M05 A3010 RMK AO2 T10451054
Loading
Personal Weather Stations






























Interactive Weather Map New forecast layout! Learn more

10-Day Weather Forecast

Advertisements
Track Severe Weather on mobile